createdAt,value
2023-03-11T00:00:16.766Z,1.07
2023-03-11T00:02:44.420Z,1.10
2023-03-11T00:05:13.965Z,1.00
2023-03-11T00:07:40.645Z,1.10
2023-03-11T00:10:07.793Z,0.97
2023-03-11T00:12:34.350Z,0.97
2023-03-11T00:15:00.909Z,0.97
2023-03-11T00:17:27.497Z,0.97
2023-03-11T00:19:54.133Z,0.90
2023-03-11T00:22:20.614Z,1.00
2023-03-11T00:24:47.166Z,1.00
2023-03-11T00:27:13.889Z,0.90
2023-03-11T00:29:40.395Z,0.90
2023-03-11T00:32:07.162Z,0.90
2023-03-11T00:34:33.641Z,1.00
2023-03-11T00:37:00.114Z,0.90
2023-03-11T00:39:26.632Z,1.20
2023-03-11T00:41:53.695Z,0.87
2023-03-11T00:44:20.209Z,0.97
2023-03-11T00:46:46.725Z,0.93
2023-03-11T00:49:13.289Z,0.90
2023-03-11T00:51:39.831Z,0.87
2023-03-11T00:54:06.384Z,1.00
2023-03-11T00:56:32.897Z,0.83
2023-03-11T00:58:59.400Z,0.90
2023-03-11T01:01:25.974Z,1.00
2023-03-11T01:03:52.509Z,0.90
2023-03-11T01:06:18.991Z,1.00
2023-03-11T01:08:45.523Z,0.80
2023-03-11T01:11:12.067Z,1.03
2023-03-11T01:13:40.074Z,0.97
2023-03-11T01:16:08.048Z,0.90
2023-03-11T01:18:34.718Z,0.90
2023-03-11T01:21:01.300Z,1.00
2023-03-11T01:23:27.865Z,1.00
2023-03-11T01:25:54.338Z,0.90
2023-03-11T01:28:20.888Z,1.00
2023-03-11T01:30:47.492Z,0.80
2023-03-11T01:33:16.827Z,0.80
2023-03-11T01:35:43.658Z,1.00
2023-03-11T01:38:10.196Z,0.90
2023-03-11T01:40:41.823Z,0.90
2023-03-11T01:43:40.666Z,0.90
2023-03-11T01:46:17.469Z,0.90
2023-03-11T01:48:49.001Z,0.90
2023-03-11T01:51:16.771Z,0.90
2023-03-11T01:53:43.313Z,0.90
2023-03-11T01:56:09.884Z,0.90
2023-03-11T01:58:38.154Z,0.90
2023-03-11T02:01:04.941Z,0.87
2023-03-11T02:03:33.278Z,0.90
2023-03-11T02:06:04.309Z,0.97
2023-03-11T02:08:34.168Z,0.90
2023-03-11T02:11:00.985Z,1.00
2023-03-11T02:13:27.710Z,0.80
2023-03-11T02:15:54.257Z,0.90
2023-03-11T02:18:22.084Z,0.90
2023-03-11T02:20:57.325Z,0.80
2023-03-11T02:23:27.198Z,0.87
2023-03-11T02:26:22.587Z,0.70
2023-03-11T02:28:49.209Z,0.90
2023-03-11T02:31:15.886Z,0.90
2023-03-11T02:33:42.373Z,0.80
2023-03-11T02:36:35.909Z,0.87
2023-03-11T02:39:02.608Z,1.00
2023-03-11T02:41:29.091Z,0.83
2023-03-11T02:43:55.622Z,1.00
2023-03-11T02:46:22.161Z,0.90
2023-03-11T02:48:48.780Z,0.90
2023-03-11T02:51:15.397Z,0.80
2023-03-11T02:53:49.828Z,0.90
2023-03-11T02:56:16.349Z,0.83
2023-03-11T02:58:42.932Z,1.00
2023-03-11T03:01:09.872Z,0.80
2023-03-11T03:03:36.410Z,0.87
2023-03-11T03:06:02.924Z,0.90
2023-03-11T03:08:29.397Z,0.80
2023-03-11T03:10:56.011Z,0.83
2023-03-11T03:13:22.533Z,0.80
2023-03-11T03:15:49.030Z,0.80
2023-03-11T03:18:15.557Z,0.90
2023-03-11T03:20:42.093Z,0.90
2023-03-11T03:23:08.705Z,0.90
2023-03-11T03:25:35.255Z,0.90
2023-03-11T03:28:01.805Z,0.80
2023-03-11T03:30:29.376Z,1.00
2023-03-11T03:32:56.210Z,0.83
2023-03-11T03:35:22.698Z,0.70
2023-03-11T03:37:49.231Z,0.90
2023-03-11T03:40:15.778Z,0.90
2023-03-11T03:42:42.281Z,0.73
2023-03-11T03:45:09.557Z,0.90
2023-03-11T03:47:36.159Z,0.70
2023-03-11T03:50:04.162Z,0.80
2023-03-11T03:52:30.717Z,0.80
2023-03-11T03:54:57.267Z,0.90
2023-03-11T03:57:23.884Z,0.90
2023-03-11T03:59:50.433Z,0.80
2023-03-11T04:02:16.926Z,0.80
2023-03-11T04:04:43.460Z,0.70
2023-03-11T04:07:09.945Z,0.93
2023-03-11T04:09:39.382Z,0.70
2023-03-11T04:12:06.197Z,0.90
2023-03-11T04:14:32.724Z,0.90
2023-03-11T04:16:59.352Z,0.90
2023-03-11T04:19:26.011Z,0.80
2023-03-11T04:21:52.565Z,0.80
2023-03-11T04:24:19.075Z,1.00
2023-03-11T04:26:45.584Z,0.90
2023-03-11T04:29:12.241Z,0.73
2023-03-11T04:31:38.785Z,0.70
2023-03-11T04:34:05.247Z,0.80
2023-03-11T04:36:31.738Z,0.80
2023-03-11T04:38:58.270Z,0.90
2023-03-11T04:41:24.837Z,0.87
2023-03-11T04:43:51.373Z,0.87
2023-03-11T04:46:17.908Z,1.10
2023-03-11T04:48:44.505Z,0.70
2023-03-11T04:51:10.987Z,0.80
2023-03-11T04:53:37.509Z,0.80
2023-03-11T04:56:04.085Z,1.00
2023-03-11T04:58:30.551Z,0.80
2023-03-11T05:00:57.081Z,1.00
2023-03-11T05:03:23.667Z,0.90
2023-03-11T05:05:50.264Z,0.90
2023-03-11T05:08:16.748Z,0.90
2023-03-11T05:10:44.424Z,0.90
2023-03-11T05:13:11.163Z,0.90
2023-03-11T05:15:37.799Z,0.80
2023-03-11T05:18:04.864Z,0.87
2023-03-11T05:20:32.358Z,0.80
2023-03-11T05:22:58.868Z,0.80
2023-03-11T05:25:25.587Z,0.70
2023-03-11T05:27:52.125Z,0.80
2023-03-11T05:30:18.799Z,0.70
2023-03-11T05:32:45.378Z,0.80
2023-03-11T05:35:11.919Z,0.97
2023-03-11T05:37:39.329Z,0.97
2023-03-11T05:40:07.701Z,0.80
2023-03-11T05:42:34.531Z,0.90
2023-03-11T05:45:01.049Z,0.90
2023-03-11T05:47:27.533Z,0.73
2023-03-11T05:49:54.046Z,0.87
2023-03-11T05:52:20.585Z,0.90
2023-03-11T05:54:50.391Z,0.90
2023-03-11T05:57:17.428Z,0.83
2023-03-11T05:59:44.106Z,0.90
2023-03-11T06:02:10.774Z,1.07
2023-03-11T06:04:37.451Z,0.90
2023-03-11T06:07:04.051Z,1.00
2023-03-11T06:09:30.620Z,0.90
2023-03-11T06:11:57.122Z,0.80
2023-03-11T06:14:23.648Z,0.90
2023-03-11T06:16:50.136Z,0.90
2023-03-11T06:19:16.662Z,1.00
2023-03-11T06:21:43.169Z,0.90
2023-03-11T06:24:09.673Z,0.80
2023-03-11T06:26:36.248Z,1.00
2023-03-11T06:29:02.814Z,1.00
2023-03-11T06:31:29.526Z,0.80
2023-03-11T06:33:56.141Z,0.90
2023-03-11T06:36:22.781Z,0.90
2023-03-11T06:38:51.672Z,0.93
2023-03-11T06:41:18.200Z,1.00
2023-03-11T06:43:44.757Z,0.80
2023-03-11T06:46:12.768Z,0.80
2023-03-11T06:48:39.358Z,1.00
2023-03-11T06:51:05.938Z,1.10
2023-03-11T06:53:32.536Z,0.90
2023-03-11T06:56:06.873Z,1.00
2023-03-11T06:58:34.039Z,0.93
2023-03-11T07:01:04.922Z,1.00
2023-03-11T07:03:31.593Z,1.00
2023-03-11T07:05:58.572Z,0.80
2023-03-11T07:08:25.321Z,0.90
2023-03-11T07:11:01.909Z,1.03
2023-03-11T07:13:29.014Z,0.90
2023-03-11T07:16:06.009Z,1.10
2023-03-11T07:18:33.023Z,0.80
2023-03-11T07:20:59.670Z,0.90
2023-03-11T07:23:26.175Z,1.10
2023-03-11T07:25:52.924Z,0.80
2023-03-11T07:28:19.820Z,0.97
2023-03-11T07:30:48.543Z,1.00
2023-03-11T07:33:15.304Z,1.00
2023-03-11T07:35:42.128Z,0.90
2023-03-11T07:38:08.733Z,1.00
2023-03-11T07:40:35.342Z,0.90
2023-03-11T07:43:01.922Z,0.90
2023-03-11T07:45:28.475Z,1.07
2023-03-11T07:47:55.035Z,1.20
2023-03-11T07:50:22.389Z,1.10
2023-03-11T07:52:48.873Z,1.00
2023-03-11T07:55:15.385Z,0.80
2023-03-11T07:57:42.683Z,0.87
2023-03-11T08:00:10.433Z,0.83
2023-03-11T08:02:37.032Z,1.00
2023-03-11T08:05:03.763Z,1.00
2023-03-11T08:07:32.261Z,0.87
2023-03-11T08:09:59.058Z,1.03
2023-03-11T08:12:25.542Z,1.00
2023-03-11T08:14:52.069Z,1.10
2023-03-11T08:17:18.641Z,0.90
2023-03-11T08:19:45.111Z,0.90
2023-03-11T08:22:11.602Z,1.10
2023-03-11T08:24:38.082Z,1.00
2023-03-11T08:27:04.638Z,1.03
2023-03-11T08:29:31.170Z,1.00
2023-03-11T08:31:57.738Z,0.80
2023-03-11T08:34:24.269Z,1.10
2023-03-11T08:36:50.888Z,1.00
2023-03-11T08:39:17.359Z,0.90
2023-03-11T08:41:43.873Z,0.80
2023-03-11T08:44:10.433Z,0.90
2023-03-11T08:46:38.142Z,0.90
2023-03-11T08:49:04.983Z,1.03
2023-03-11T08:51:32.463Z,1.00
2023-03-11T08:53:59.618Z,0.90
2023-03-11T08:56:26.208Z,0.90
2023-03-11T08:58:52.897Z,0.90
2023-03-11T09:01:20.353Z,1.00
2023-03-11T09:03:47.018Z,0.80
2023-03-11T09:06:15.386Z,1.00
2023-03-11T09:08:42.808Z,0.90
2023-03-11T09:11:09.619Z,0.90
2023-03-11T09:13:36.250Z,0.97
2023-03-11T09:16:05.824Z,0.80
2023-03-11T09:18:32.392Z,0.97
2023-03-11T09:21:00.442Z,0.90
2023-03-11T09:23:26.953Z,1.00
2023-03-11T09:25:53.506Z,1.07
2023-03-11T09:28:20.044Z,0.80
2023-03-11T09:30:46.543Z,1.20
2023-03-11T09:33:13.074Z,0.97
2023-03-11T09:35:39.786Z,0.90
2023-03-11T09:38:06.361Z,1.10
2023-03-11T09:41:01.939Z,0.90
2023-03-11T09:43:54.368Z,0.90
2023-03-11T09:46:49.043Z,1.00
2023-03-11T09:49:34.675Z,0.90
2023-03-11T09:52:07.376Z,1.00
2023-03-11T09:54:37.666Z,1.00
2023-03-11T09:57:04.211Z,0.90
2023-03-11T09:59:31.572Z,0.90
2023-03-11T10:01:58.189Z,0.80
2023-03-11T10:05:03.876Z,1.00
2023-03-11T10:07:38.271Z,0.80
2023-03-11T10:10:05.155Z,0.90
2023-03-11T10:12:48.561Z,0.90
2023-03-11T10:15:23.483Z,1.00
2023-03-11T10:18:15.151Z,1.10
2023-03-11T10:21:01.003Z,1.10
2023-03-11T10:23:33.428Z,0.80
2023-03-11T10:26:02.073Z,1.10
2023-03-11T10:28:37.097Z,0.90
2023-03-11T10:31:08.782Z,0.80
2023-03-11T10:33:47.983Z,0.90
2023-03-11T10:36:19.093Z,1.00
2023-03-11T10:38:48.751Z,1.00
2023-03-11T10:41:22.908Z,0.90
2023-03-11T10:43:54.657Z,1.03
2023-03-11T10:46:25.269Z,0.90
2023-03-11T10:48:51.769Z,0.90
2023-03-11T10:51:22.595Z,0.93
2023-03-11T10:53:54.408Z,0.90
2023-03-11T10:56:28.927Z,1.00
2023-03-11T10:58:55.524Z,1.00
2023-03-11T11:01:22.243Z,0.90
2023-03-11T11:03:50.495Z,1.00
2023-03-11T11:06:26.597Z,1.00
2023-03-11T11:09:21.943Z,1.00
2023-03-11T11:12:02.902Z,0.90
2023-03-11T11:14:46.531Z,1.00
2023-03-11T11:17:33.468Z,0.87
2023-03-11T11:20:01.322Z,1.00
2023-03-11T11:22:27.853Z,1.03
2023-03-11T11:24:55.000Z,0.90
2023-03-11T11:27:26.178Z,0.90
2023-03-11T11:30:08.843Z,0.93
2023-03-11T11:32:35.835Z,0.90
2023-03-11T11:35:07.508Z,1.00
2023-03-11T11:37:35.929Z,1.00
2023-03-11T11:40:14.365Z,1.10
2023-03-11T11:42:46.653Z,1.00
2023-03-11T11:45:34.944Z,0.90
2023-03-11T11:48:22.260Z,1.00
2023-03-11T11:50:52.891Z,1.00
2023-03-11T11:53:28.666Z,1.00
2023-03-11T11:55:55.339Z,1.10
2023-03-11T11:58:22.131Z,0.90
2023-03-11T12:01:31.446Z,1.17
2023-03-11T12:04:01.842Z,1.20
2023-03-11T12:06:34.485Z,0.90
2023-03-11T12:09:15.165Z,1.13
2023-03-11T12:11:53.616Z,1.00
2023-03-11T12:14:26.836Z,1.10
2023-03-11T12:17:04.200Z,1.10
2023-03-11T12:20:08.867Z,1.33
2023-03-11T12:23:03.415Z,1.13
2023-03-11T12:25:44.126Z,1.13
2023-03-11T12:28:36.200Z,1.00
2023-03-11T12:31:04.538Z,1.30
2023-03-11T12:33:38.118Z,1.10
2023-03-11T12:36:05.143Z,1.10
2023-03-11T12:38:35.450Z,1.07
2023-03-11T12:41:05.015Z,1.03
2023-03-11T12:43:33.689Z,1.13
2023-03-11T12:46:10.328Z,1.00
2023-03-11T12:48:45.406Z,1.10
2023-03-11T12:52:00.281Z,1.10
2023-03-11T12:54:37.248Z,1.10
2023-03-11T12:57:17.899Z,1.00
2023-03-11T13:00:02.783Z,1.10
2023-03-11T13:02:48.526Z,1.00
2023-03-11T13:05:23.773Z,1.00
2023-03-11T13:08:10.143Z,1.10
2023-03-11T13:10:47.927Z,1.10
2023-03-11T13:13:42.088Z,1.10
2023-03-11T13:16:14.578Z,1.07
2023-03-11T13:18:42.120Z,1.30
2023-03-11T13:21:26.946Z,1.30
2023-03-11T13:24:12.148Z,1.00
2023-03-11T13:27:24.997Z,1.10
2023-03-11T13:30:05.265Z,1.10
2023-03-11T13:32:53.048Z,0.90
2023-03-11T13:35:41.965Z,1.00
2023-03-11T13:38:23.612Z,1.10
2023-03-11T13:40:51.918Z,1.10
2023-03-11T13:43:25.680Z,1.00
2023-03-11T13:46:07.417Z,1.13
2023-03-11T13:48:37.663Z,1.20
2023-03-11T13:51:06.365Z,1.23
2023-03-11T13:53:36.110Z,1.10
2023-03-11T13:56:02.665Z,1.20
2023-03-11T13:58:29.226Z,1.10
2023-03-11T14:00:57.821Z,1.27
2023-03-11T14:03:25.556Z,1.10
2023-03-11T14:06:02.370Z,1.00
2023-03-11T14:08:34.880Z,0.93
2023-03-11T14:11:13.322Z,1.00
2023-03-11T14:13:41.344Z,1.10
2023-03-11T14:16:09.426Z,1.00
2023-03-11T14:18:50.174Z,1.10
2023-03-11T14:21:18.465Z,1.10
2023-03-11T14:23:52.184Z,1.00
2023-03-11T14:26:37.223Z,1.10
2023-03-11T14:29:12.078Z,1.30
2023-03-11T14:31:40.174Z,1.10
2023-03-11T14:34:09.820Z,1.07
2023-03-11T14:36:45.481Z,1.10
2023-03-11T14:39:34.226Z,1.10
2023-03-11T14:42:07.367Z,1.10
2023-03-11T14:44:41.962Z,1.00
2023-03-11T14:47:17.085Z,1.20
2023-03-11T14:49:43.661Z,1.10
2023-03-11T14:52:38.111Z,1.13
2023-03-11T14:55:06.767Z,1.00
2023-03-11T14:57:41.135Z,1.00
2023-03-11T15:00:15.999Z,1.00
2023-03-11T15:03:08.091Z,0.93
2023-03-11T15:05:42.582Z,1.00
2023-03-11T15:08:09.107Z,1.20
2023-03-11T15:10:36.968Z,1.10
2023-03-11T15:13:07.922Z,1.10
2023-03-11T15:15:34.453Z,1.00
2023-03-11T15:18:01.189Z,1.20
2023-03-11T15:20:27.625Z,1.20
2023-03-11T15:23:01.201Z,1.00
2023-03-11T15:25:35.148Z,1.20
2023-03-11T15:28:25.218Z,1.10
2023-03-11T15:31:12.337Z,1.00
2023-03-11T15:33:38.931Z,1.00
2023-03-11T15:36:05.712Z,1.20
2023-03-11T15:38:32.237Z,1.20
2023-03-11T15:41:01.062Z,1.00
2023-03-11T15:43:31.852Z,1.00
2023-03-11T15:45:59.286Z,1.10
2023-03-11T15:48:27.827Z,1.10
2023-03-11T15:50:56.157Z,1.20
2023-03-11T15:53:23.567Z,1.00
2023-03-11T15:55:50.178Z,1.13
2023-03-11T15:58:17.546Z,1.10
2023-03-11T16:00:49.143Z,1.10
2023-03-11T16:03:15.907Z,1.00
2023-03-11T16:05:42.499Z,1.10
2023-03-11T16:08:09.054Z,1.10
2023-03-11T16:10:35.574Z,1.20
2023-03-11T16:13:02.318Z,1.00
2023-03-11T16:15:36.948Z,1.17
2023-03-11T16:18:05.107Z,1.07
2023-03-11T16:20:49.491Z,1.10
2023-03-11T16:23:36.173Z,1.20
2023-03-11T16:26:08.494Z,1.20
2023-03-11T16:28:35.103Z,1.13
2023-03-11T16:31:01.723Z,1.20
2023-03-11T16:33:28.383Z,0.90
2023-03-11T16:35:54.986Z,1.10
2023-03-11T16:38:23.175Z,1.00
2023-03-11T16:40:57.814Z,1.10
2023-03-11T16:43:24.374Z,1.00
2023-03-11T16:45:50.934Z,1.10
2023-03-11T16:48:17.537Z,1.00
2023-03-11T16:50:44.081Z,1.10
2023-03-11T16:53:10.813Z,1.10
2023-03-11T16:55:37.310Z,1.20
2023-03-11T16:58:03.973Z,1.23
2023-03-11T17:00:30.698Z,1.10
2023-03-11T17:02:57.332Z,1.10
2023-03-11T17:05:23.867Z,1.13
2023-03-11T17:07:54.877Z,1.30
2023-03-11T17:10:23.829Z,1.13
2023-03-11T17:12:50.353Z,1.20
2023-03-11T17:15:16.916Z,1.20
2023-03-11T17:17:43.438Z,1.20
2023-03-11T17:20:11.120Z,1.10
2023-03-11T17:22:37.680Z,1.07
2023-03-11T17:25:04.657Z,1.10
2023-03-11T17:27:32.599Z,1.23
2023-03-11T17:30:00.274Z,1.10
2023-03-11T17:32:26.814Z,1.00
2023-03-11T17:34:53.422Z,1.07
2023-03-11T17:37:19.998Z,1.20
2023-03-11T17:39:46.546Z,0.97
2023-03-11T17:42:13.167Z,1.07
2023-03-11T17:44:51.093Z,1.10
2023-03-11T17:47:19.715Z,1.30
2023-03-11T17:49:46.849Z,1.10
2023-03-11T17:52:13.451Z,1.10
2023-03-11T17:54:39.959Z,1.20
2023-03-11T17:57:06.825Z,1.10
2023-03-11T17:59:33.309Z,1.20
2023-03-11T18:01:59.886Z,1.10
2023-03-11T18:04:26.425Z,1.33
2023-03-11T18:06:54.295Z,1.20
2023-03-11T18:09:20.787Z,1.00
2023-03-11T18:11:47.278Z,1.13
2023-03-11T18:14:13.851Z,1.07
2023-03-11T18:16:40.384Z,1.13
2023-03-11T18:19:06.925Z,1.03
2023-03-11T18:21:33.521Z,1.30
2023-03-11T18:24:00.533Z,1.50
2023-03-11T18:26:28.544Z,1.60
2023-03-11T18:28:58.974Z,1.40
2023-03-11T18:31:26.181Z,1.10
2023-03-11T18:33:54.530Z,1.20
2023-03-11T18:36:28.949Z,1.33
2023-03-11T18:38:56.974Z,1.20
2023-03-11T18:41:23.972Z,1.20
2023-03-11T18:43:54.383Z,1.60
2023-03-11T18:46:21.124Z,1.30
2023-03-11T18:48:48.870Z,1.53
2023-03-11T18:51:16.147Z,1.23
2023-03-11T18:53:43.080Z,1.57
2023-03-11T18:56:11.705Z,1.37
2023-03-11T18:58:38.247Z,1.50
2023-03-11T19:01:15.726Z,1.53
2023-03-11T19:03:42.869Z,1.40
2023-03-11T19:06:09.962Z,1.50
2023-03-11T19:08:36.652Z,1.60
2023-03-11T19:11:22.160Z,1.40
2023-03-11T19:13:48.677Z,1.40
2023-03-11T19:16:17.350Z,1.50
2023-03-11T19:18:43.905Z,1.70
2023-03-11T19:21:11.755Z,1.60
2023-03-11T19:23:38.364Z,1.60
2023-03-11T19:26:04.894Z,1.60
2023-03-11T19:28:31.392Z,1.50
2023-03-11T19:30:58.511Z,1.53
2023-03-11T19:33:25.395Z,1.60
2023-03-11T19:35:56.499Z,1.67
2023-03-11T19:38:23.218Z,1.53
2023-03-11T19:40:53.757Z,1.50
2023-03-11T19:43:20.913Z,1.40
2023-03-11T19:45:49.324Z,1.60
2023-03-11T19:48:16.179Z,1.63
2023-03-11T19:50:42.827Z,1.60
2023-03-11T19:53:09.355Z,1.47
2023-03-11T19:55:35.880Z,1.60
2023-03-11T19:58:02.452Z,1.23
2023-03-11T20:00:30.508Z,1.50
2023-03-11T20:02:57.187Z,1.70
2023-03-11T20:05:23.777Z,1.50
2023-03-11T20:07:50.498Z,1.53
2023-03-11T20:10:17.680Z,1.63
2023-03-11T20:12:59.628Z,1.57
2023-03-11T20:15:28.666Z,1.67
2023-03-11T20:17:55.198Z,1.70
2023-03-11T20:20:21.855Z,1.60
2023-03-11T20:22:48.541Z,1.57
2023-03-11T20:25:16.170Z,1.23
2023-03-11T20:27:42.954Z,1.50
2023-03-11T20:30:10.207Z,1.60
2023-03-11T20:32:36.735Z,1.50
2023-03-11T20:35:04.064Z,1.43
2023-03-11T20:37:33.772Z,1.70
2023-03-11T20:40:00.305Z,1.70
2023-03-11T20:42:26.875Z,1.70
2023-03-11T20:44:53.987Z,1.63
2023-03-11T20:47:20.761Z,1.70
2023-03-11T20:49:47.381Z,1.73
2023-03-11T20:52:14.032Z,1.90
2023-03-11T20:54:40.773Z,1.63
2023-03-11T20:57:07.742Z,1.70
2023-03-11T20:59:34.268Z,1.80
2023-03-11T21:02:01.006Z,1.50
2023-03-11T21:04:27.680Z,1.60
2023-03-11T21:06:55.492Z,1.63
2023-03-11T21:09:22.116Z,1.60
2023-03-11T21:11:48.782Z,1.70
2023-03-11T21:14:16.598Z,1.90
2023-03-11T21:16:45.222Z,2.03
2023-03-11T21:19:13.461Z,1.70
2023-03-11T21:21:40.297Z,1.73
2023-03-11T21:24:07.136Z,1.67
2023-03-11T21:26:33.829Z,1.80
2023-03-11T21:29:00.842Z,1.80
2023-03-11T21:31:29.442Z,1.97
2023-03-11T21:33:57.245Z,1.93
2023-03-11T21:36:23.871Z,2.03
2023-03-11T21:38:50.754Z,1.90
2023-03-11T21:41:27.933Z,1.73
2023-03-11T21:43:55.081Z,1.90
2023-03-11T21:46:28.054Z,1.90
2023-03-11T21:48:54.779Z,1.97
2023-03-11T21:51:21.507Z,2.20
2023-03-11T21:53:48.157Z,1.90
2023-03-11T21:56:14.931Z,2.00
2023-03-11T21:58:41.577Z,2.30
2023-03-11T22:01:08.505Z,2.17
2023-03-11T22:03:36.004Z,2.17
2023-03-11T22:06:05.201Z,2.27
2023-03-11T22:08:31.828Z,2.40
2023-03-11T22:10:58.425Z,2.00
2023-03-11T22:13:25.246Z,2.27
2023-03-11T22:15:52.188Z,2.47
2023-03-11T22:18:18.938Z,2.50
2023-03-11T22:20:45.601Z,2.50
2023-03-11T22:23:12.458Z,2.40
2023-03-11T22:25:39.022Z,2.20
2023-03-11T22:28:05.533Z,2.30
2023-03-11T22:30:32.121Z,2.70
2023-03-11T22:32:58.688Z,2.67
2023-03-11T22:35:25.226Z,2.60
2023-03-11T22:37:51.755Z,2.67
2023-03-11T22:40:18.246Z,2.87
2023-03-11T22:42:44.857Z,2.50
2023-03-11T22:45:11.616Z,2.20
2023-03-11T22:47:38.219Z,2.80
2023-03-11T22:50:05.019Z,3.03
2023-03-11T22:52:31.546Z,2.90
2023-03-11T22:54:58.067Z,2.87
2023-03-11T22:57:24.728Z,3.07
2023-03-11T22:59:51.342Z,2.80
2023-03-11T23:02:17.912Z,2.93
2023-03-11T23:04:45.637Z,3.00
2023-03-11T23:07:12.341Z,2.87
2023-03-11T23:09:38.884Z,3.10
2023-03-11T23:12:05.565Z,2.90
2023-03-11T23:14:44.004Z,2.70
2023-03-11T23:17:11.431Z,2.50
2023-03-11T23:19:37.992Z,3.10
2023-03-11T23:22:04.642Z,3.70
2023-03-11T23:24:31.316Z,3.03
2023-03-11T23:26:57.844Z,3.33
2023-03-11T23:29:24.402Z,3.57
2023-03-11T23:31:50.927Z,2.93
2023-03-11T23:34:17.471Z,3.53
2023-03-11T23:36:44.022Z,3.20
2023-03-11T23:39:10.554Z,3.33
2023-03-11T23:41:38.004Z,3.60
2023-03-11T23:44:04.933Z,3.63
2023-03-11T23:46:31.685Z,3.30
2023-03-11T23:48:58.622Z,3.63
2023-03-11T23:51:25.213Z,3.53
2023-03-11T23:53:51.727Z,3.93
2023-03-11T23:56:18.517Z,4.10
2023-03-11T23:58:45.256Z,3.63
